sensor_id;sensor_type;location;lat;lon;timestamp;P1;durP1;ratioP1;P2;durP2;ratioP2
21727;SDS011;11026;50.560;17.852;2024-03-08T00:00:14;51.80;;;34.58;;
21727;SDS011;11026;50.560;17.852;2024-03-08T00:02:47;49.67;;;33.45;;
21727;SDS011;11026;50.560;17.852;2024-03-08T00:05:18;49.85;;;34.22;;
21727;SDS011;11026;50.560;17.852;2024-03-08T00:07:45;50.58;;;34.00;;
21727;SDS011;11026;50.560;17.852;2024-03-08T00:10:13;50.92;;;34.22;;
21727;SDS011;11026;50.560;17.852;2024-03-08T00:12:42;48.72;;;33.05;;
21727;SDS011;11026;50.560;17.852;2024-03-08T00:15:11;49.28;;;33.58;;
21727;SDS011;11026;50.560;17.852;2024-03-08T00:20:13;50.75;;;33.53;;
21727;SDS011;11026;50.560;17.852;2024-03-08T00:22:42;53.00;;;34.80;;
21727;SDS011;11026;50.560;17.852;2024-03-08T00:25:10;53.72;;;34.38;;
21727;SDS011;11026;50.560;17.852;2024-03-08T00:27:39;52.88;;;33.05;;
21727;SDS011;11026;50.560;17.852;2024-03-08T00:30:06;48.38;;;32.33;;
21727;SDS011;11026;50.560;17.852;2024-03-08T00:32:35;51.92;;;33.40;;
21727;SDS011;11026;50.560;17.852;2024-03-08T00:35:05;60.83;;;38.95;;
21727;SDS011;11026;50.560;17.852;2024-03-08T00:37:36;69.45;;;47.63;;
21727;SDS011;11026;50.560;17.852;2024-03-08T00:40:03;76.40;;;49.47;;
21727;SDS011;11026;50.560;17.852;2024-03-08T00:42:34;60.83;;;41.03;;
21727;SDS011;11026;50.560;17.852;2024-03-08T00:45:02;60.72;;;39.50;;
21727;SDS011;11026;50.560;17.852;2024-03-08T00:47:30;65.43;;;42.40;;
21727;SDS011;11026;50.560;17.852;2024-03-08T00:49:57;62.80;;;39.80;;
21727;SDS011;11026;50.560;17.852;2024-03-08T00:52:24;56.40;;;37.83;;
21727;SDS011;11026;50.560;17.852;2024-03-08T00:54:51;63.70;;;41.05;;
21727;SDS011;11026;50.560;17.852;2024-03-08T00:57:19;61.53;;;39.13;;
21727;SDS011;11026;50.560;17.852;2024-03-08T00:59:47;60.80;;;39.47;;
21727;SDS011;11026;50.560;17.852;2024-03-08T01:02:15;63.17;;;38.75;;
21727;SDS011;11026;50.560;17.852;2024-03-08T01:04:46;67.13;;;43.13;;
21727;SDS011;11026;50.560;17.852;2024-03-08T01:07:14;65.53;;;42.67;;
21727;SDS011;11026;50.560;17.852;2024-03-08T01:09:42;61.00;;;40.25;;
21727;SDS011;11026;50.560;17.852;2024-03-08T01:12:09;67.25;;;41.88;;
21727;SDS011;11026;50.560;17.852;2024-03-08T01:14:39;74.82;;;49.60;;
21727;SDS011;11026;50.560;17.852;2024-03-08T01:17:06;68.00;;;43.63;;
21727;SDS011;11026;50.560;17.852;2024-03-08T01:19:35;64.10;;;43.00;;
21727;SDS011;11026;50.560;17.852;2024-03-08T01:22:02;64.55;;;42.33;;
21727;SDS011;11026;50.560;17.852;2024-03-08T01:24:31;67.65;;;42.38;;
21727;SDS011;11026;50.560;17.852;2024-03-08T01:26:59;63.95;;;40.60;;
21727;SDS011;11026;50.560;17.852;2024-03-08T01:29:28;58.55;;;39.67;;
21727;SDS011;11026;50.560;17.852;2024-03-08T01:31:56;64.32;;;40.20;;
21727;SDS011;11026;50.560;17.852;2024-03-08T01:34:23;61.40;;;40.95;;
21727;SDS011;11026;50.560;17.852;2024-03-08T01:36:50;61.08;;;40.22;;
21727;SDS011;11026;50.560;17.852;2024-03-08T01:39:17;67.60;;;43.15;;
21727;SDS011;11026;50.560;17.852;2024-03-08T01:41:45;68.50;;;45.17;;
21727;SDS011;11026;50.560;17.852;2024-03-08T01:44:12;71.35;;;47.55;;
21727;SDS011;11026;50.560;17.852;2024-03-08T01:46:48;64.95;;;46.22;;
21727;SDS011;11026;50.560;17.852;2024-03-08T01:49:19;65.65;;;43.08;;
21727;SDS011;11026;50.560;17.852;2024-03-08T01:51:49;67.35;;;42.72;;
21727;SDS011;11026;50.560;17.852;2024-03-08T01:54:16;66.35;;;43.08;;
21727;SDS011;11026;50.560;17.852;2024-03-08T01:56:47;69.25;;;44.50;;
21727;SDS011;11026;50.560;17.852;2024-03-08T01:59:15;68.18;;;42.65;;
21727;SDS011;11026;50.560;17.852;2024-03-08T02:01:44;62.17;;;41.15;;
21727;SDS011;11026;50.560;17.852;2024-03-08T02:04:11;70.45;;;44.90;;
21727;SDS011;11026;50.560;17.852;2024-03-08T02:06:39;67.10;;;43.20;;
21727;SDS011;11026;50.560;17.852;2024-03-08T02:09:06;71.07;;;45.63;;
21727;SDS011;11026;50.560;17.852;2024-03-08T02:11:34;72.20;;;47.72;;
21727;SDS011;11026;50.560;17.852;2024-03-08T02:14:04;78.25;;;47.05;;
21727;SDS011;11026;50.560;17.852;2024-03-08T02:16:33;73.88;;;46.75;;
21727;SDS011;11026;50.560;17.852;2024-03-08T02:19:00;73.57;;;46.38;;
21727;SDS011;11026;50.560;17.852;2024-03-08T02:21:28;74.20;;;46.03;;
21727;SDS011;11026;50.560;17.852;2024-03-08T02:23:56;68.60;;;46.38;;
21727;SDS011;11026;50.560;17.852;2024-03-08T02:26:24;76.43;;;46.70;;
21727;SDS011;11026;50.560;17.852;2024-03-08T02:28:51;71.97;;;46.35;;
21727;SDS011;11026;50.560;17.852;2024-03-08T02:31:19;74.05;;;48.22;;
21727;SDS011;11026;50.560;17.852;2024-03-08T02:33:48;74.97;;;46.70;;
21727;SDS011;11026;50.560;17.852;2024-03-08T02:36:16;74.55;;;47.42;;
21727;SDS011;11026;50.560;17.852;2024-03-08T02:38:44;70.93;;;47.08;;
21727;SDS011;11026;50.560;17.852;2024-03-08T02:41:12;73.00;;;45.35;;
21727;SDS011;11026;50.560;17.852;2024-03-08T02:43:40;72.50;;;47.42;;
21727;SDS011;11026;50.560;17.852;2024-03-08T02:46:08;72.65;;;47.47;;
21727;SDS011;11026;50.560;17.852;2024-03-08T02:48:36;76.45;;;48.20;;
21727;SDS011;11026;50.560;17.852;2024-03-08T02:51:04;82.90;;;50.53;;
21727;SDS011;11026;50.560;17.852;2024-03-08T02:53:33;83.32;;;51.40;;
21727;SDS011;11026;50.560;17.852;2024-03-08T02:56:02;77.15;;;49.42;;
21727;SDS011;11026;50.560;17.852;2024-03-08T03:01:00;76.03;;;49.30;;
21727;SDS011;11026;50.560;17.852;2024-03-08T03:03:27;75.90;;;48.63;;
21727;SDS011;11026;50.560;17.852;2024-03-08T03:05:57;82.97;;;51.92;;
21727;SDS011;11026;50.560;17.852;2024-03-08T03:08:24;78.32;;;51.85;;
21727;SDS011;11026;50.560;17.852;2024-03-08T03:10:51;81.95;;;51.88;;
21727;SDS011;11026;50.560;17.852;2024-03-08T03:13:18;82.15;;;50.58;;
21727;SDS011;11026;50.560;17.852;2024-03-08T03:15:46;78.13;;;51.30;;
21727;SDS011;11026;50.560;17.852;2024-03-08T03:18:13;79.85;;;50.58;;
21727;SDS011;11026;50.560;17.852;2024-03-08T03:20:41;81.80;;;50.13;;
21727;SDS011;11026;50.560;17.852;2024-03-08T03:23:10;82.22;;;52.30;;
21727;SDS011;11026;50.560;17.852;2024-03-08T03:25:42;79.47;;;50.63;;
21727;SDS011;11026;50.560;17.852;2024-03-08T03:28:11;84.00;;;53.00;;
21727;SDS011;11026;50.560;17.852;2024-03-08T03:33:15;86.85;;;55.05;;
21727;SDS011;11026;50.560;17.852;2024-03-08T03:35:45;83.38;;;53.58;;
21727;SDS011;11026;50.560;17.852;2024-03-08T03:38:14;88.60;;;53.83;;
21727;SDS011;11026;50.560;17.852;2024-03-08T03:40:41;85.53;;;54.13;;
21727;SDS011;11026;50.560;17.852;2024-03-08T03:43:10;91.93;;;55.58;;
21727;SDS011;11026;50.560;17.852;2024-03-08T03:45:39;88.57;;;54.63;;
21727;SDS011;11026;50.560;17.852;2024-03-08T03:48:10;81.55;;;54.33;;
21727;SDS011;11026;50.560;17.852;2024-03-08T03:50:38;86.38;;;56.20;;
21727;SDS011;11026;50.560;17.852;2024-03-08T03:53:08;84.68;;;53.70;;
21727;SDS011;11026;50.560;17.852;2024-03-08T03:55:37;84.35;;;52.45;;
21727;SDS011;11026;50.560;17.852;2024-03-08T03:58:08;80.47;;;53.08;;
21727;SDS011;11026;50.560;17.852;2024-03-08T04:10:40;94.03;;;56.97;;
21727;SDS011;11026;50.560;17.852;2024-03-08T04:13:11;93.30;;;58.50;;
21727;SDS011;11026;50.560;17.852;2024-03-08T04:15:38;87.13;;;56.88;;
21727;SDS011;11026;50.560;17.852;2024-03-08T04:18:05;91.20;;;56.53;;
21727;SDS011;11026;50.560;17.852;2024-03-08T04:20:33;90.88;;;56.58;;
21727;SDS011;11026;50.560;17.852;2024-03-08T04:23:02;92.25;;;55.55;;
21727;SDS011;11026;50.560;17.852;2024-03-08T04:25:29;91.00;;;56.38;;
21727;SDS011;11026;50.560;17.852;2024-03-08T04:27:58;92.85;;;57.78;;
21727;SDS011;11026;50.560;17.852;2024-03-08T04:30:27;96.65;;;58.55;;
21727;SDS011;11026;50.560;17.852;2024-03-08T04:32:56;86.65;;;53.20;;
21727;SDS011;11026;50.560;17.852;2024-03-08T04:35:24;87.07;;;54.28;;
21727;SDS011;11026;50.560;17.852;2024-03-08T04:37:52;81.60;;;50.47;;
21727;SDS011;11026;50.560;17.852;2024-03-08T04:40:20;76.85;;;49.95;;
21727;SDS011;11026;50.560;17.852;2024-03-08T04:42:46;84.25;;;52.38;;
21727;SDS011;11026;50.560;17.852;2024-03-08T04:45:18;84.40;;;53.22;;
21727;SDS011;11026;50.560;17.852;2024-03-08T04:47:46;87.50;;;51.60;;
21727;SDS011;11026;50.560;17.852;2024-03-08T04:50:13;90.60;;;54.58;;
21727;SDS011;11026;50.560;17.852;2024-03-08T04:52:41;104.93;;;62.08;;
21727;SDS011;11026;50.560;17.852;2024-03-08T04:55:08;137.73;;;76.90;;
21727;SDS011;11026;50.560;17.852;2024-03-08T04:57:36;104.47;;;61.33;;
21727;SDS011;11026;50.560;17.852;2024-03-08T05:00:03;89.55;;;55.85;;
21727;SDS011;11026;50.560;17.852;2024-03-08T05:02:40;85.65;;;55.17;;
21727;SDS011;11026;50.560;17.852;2024-03-08T05:05:09;122.65;;;70.97;;
21727;SDS011;11026;50.560;17.852;2024-03-08T05:07:39;108.97;;;63.63;;
21727;SDS011;11026;50.560;17.852;2024-03-08T05:10:08;102.28;;;61.75;;
21727;SDS011;11026;50.560;17.852;2024-03-08T05:15:07;125.07;;;71.00;;
21727;SDS011;11026;50.560;17.852;2024-03-08T05:17:35;125.80;;;69.47;;
21727;SDS011;11026;50.560;17.852;2024-03-08T05:20:04;116.95;;;67.13;;
21727;SDS011;11026;50.560;17.852;2024-03-08T05:22:35;121.47;;;68.70;;
21727;SDS011;11026;50.560;17.852;2024-03-08T05:25:02;116.25;;;70.35;;
21727;SDS011;11026;50.560;17.852;2024-03-08T05:27:29;112.10;;;65.70;;
21727;SDS011;11026;50.560;17.852;2024-03-08T05:29:56;108.47;;;66.18;;
21727;SDS011;11026;50.560;17.852;2024-03-08T05:32:23;112.15;;;70.38;;
21727;SDS011;11026;50.560;17.852;2024-03-08T05:34:53;117.53;;;74.88;;
21727;SDS011;11026;50.560;17.852;2024-03-08T05:39:52;115.32;;;74.00;;
21727;SDS011;11026;50.560;17.852;2024-03-08T05:42:21;139.50;;;86.38;;
21727;SDS011;11026;50.560;17.852;2024-03-08T05:44:48;140.23;;;91.30;;
21727;SDS011;11026;50.560;17.852;2024-03-08T05:47:16;138.63;;;86.65;;
21727;SDS011;11026;50.560;17.852;2024-03-08T05:49:45;137.43;;;82.05;;
21727;SDS011;11026;50.560;17.852;2024-03-08T05:52:13;110.80;;;69.55;;
21727;SDS011;11026;50.560;17.852;2024-03-08T05:54:41;108.00;;;66.40;;
21727;SDS011;11026;50.560;17.852;2024-03-08T05:57:08;106.00;;;64.93;;
21727;SDS011;11026;50.560;17.852;2024-03-08T05:59:36;100.00;;;62.60;;
21727;SDS011;11026;50.560;17.852;2024-03-08T06:02:04;100.88;;;60.53;;
21727;SDS011;11026;50.560;17.852;2024-03-08T06:04:33;97.97;;;61.67;;
21727;SDS011;11026;50.560;17.852;2024-03-08T06:07:00;96.40;;;60.50;;
21727;SDS011;11026;50.560;17.852;2024-03-08T06:09:30;98.20;;;64.35;;
21727;SDS011;11026;50.560;17.852;2024-03-08T06:11:57;106.00;;;67.45;;
21727;SDS011;11026;50.560;17.852;2024-03-08T06:14:26;99.22;;;65.13;;
21727;SDS011;11026;50.560;17.852;2024-03-08T06:16:55;103.35;;;70.00;;
21727;SDS011;11026;50.560;17.852;2024-03-08T06:19:22;98.60;;;60.30;;
21727;SDS011;11026;50.560;17.852;2024-03-08T06:21:49;92.63;;;57.08;;
21727;SDS011;11026;50.560;17.852;2024-03-08T06:24:18;93.32;;;54.38;;
21727;SDS011;11026;50.560;17.852;2024-03-08T06:26:46;91.90;;;57.75;;
21727;SDS011;11026;50.560;17.852;2024-03-08T06:29:13;88.10;;;55.85;;
21727;SDS011;11026;50.560;17.852;2024-03-08T06:31:42;88.05;;;54.58;;
21727;SDS011;11026;50.560;17.852;2024-03-08T06:34:09;92.80;;;56.72;;
21727;SDS011;11026;50.560;17.852;2024-03-08T06:36:36;88.22;;;55.80;;
21727;SDS011;11026;50.560;17.852;2024-03-08T06:41:37;85.72;;;52.42;;
21727;SDS011;11026;50.560;17.852;2024-03-08T06:44:07;83.63;;;51.58;;
21727;SDS011;11026;50.560;17.852;2024-03-08T06:46:35;89.10;;;53.60;;
21727;SDS011;11026;50.560;17.852;2024-03-08T06:49:03;79.25;;;49.53;;
21727;SDS011;11026;50.560;17.852;2024-03-08T06:51:31;77.93;;;49.85;;
21727;SDS011;11026;50.560;17.852;2024-03-08T06:56:35;78.90;;;48.95;;
21727;SDS011;11026;50.560;17.852;2024-03-08T06:59:03;73.80;;;47.63;;
21727;SDS011;11026;50.560;17.852;2024-03-08T07:01:30;76.40;;;47.80;;
21727;SDS011;11026;50.560;17.852;2024-03-08T07:09:00;70.18;;;45.10;;
21727;SDS011;11026;50.560;17.852;2024-03-08T07:11:28;79.10;;;47.45;;
21727;SDS011;11026;50.560;17.852;2024-03-08T07:13:55;78.50;;;46.55;;
21727;SDS011;11026;50.560;17.852;2024-03-08T07:16:22;68.10;;;44.55;;
21727;SDS011;11026;50.560;17.852;2024-03-08T07:18:50;70.18;;;44.63;;
21727;SDS011;11026;50.560;17.852;2024-03-08T07:21:19;68.45;;;44.97;;
21727;SDS011;11026;50.560;17.852;2024-03-08T07:23:47;69.70;;;45.17;;
21727;SDS011;11026;50.560;17.852;2024-03-08T07:26:30;69.25;;;46.15;;
21727;SDS011;11026;50.560;17.852;2024-03-08T07:28:58;72.03;;;48.08;;
21727;SDS011;11026;50.560;17.852;2024-03-08T07:34:11;70.90;;;44.83;;
21727;SDS011;11026;50.560;17.852;2024-03-08T07:36:39;66.32;;;43.05;;
21727;SDS011;11026;50.560;17.852;2024-03-08T07:39:07;64.15;;;42.88;;
21727;SDS011;11026;50.560;17.852;2024-03-08T07:41:38;64.38;;;42.78;;
21727;SDS011;11026;50.560;17.852;2024-03-08T07:44:10;62.97;;;41.30;;
21727;SDS011;11026;50.560;17.852;2024-03-08T07:46:38;64.85;;;42.40;;
21727;SDS011;11026;50.560;17.852;2024-03-08T07:49:05;65.78;;;41.63;;
21727;SDS011;11026;50.560;17.852;2024-03-08T07:51:33;61.40;;;41.50;;
21727;SDS011;11026;50.560;17.852;2024-03-08T07:54:01;60.17;;;40.25;;
21727;SDS011;11026;50.560;17.852;2024-03-08T07:56:31;64.30;;;41.63;;
21727;SDS011;11026;50.560;17.852;2024-03-08T07:59:00;63.05;;;41.33;;
21727;SDS011;11026;50.560;17.852;2024-03-08T08:01:27;62.90;;;41.38;;
21727;SDS011;11026;50.560;17.852;2024-03-08T08:03:55;61.25;;;40.80;;
21727;SDS011;11026;50.560;17.852;2024-03-08T08:06:23;60.45;;;40.60;;
21727;SDS011;11026;50.560;17.852;2024-03-08T08:08:51;62.15;;;40.45;;
21727;SDS011;11026;50.560;17.852;2024-03-08T08:11:18;58.17;;;38.47;;
21727;SDS011;11026;50.560;17.852;2024-03-08T08:13:46;58.25;;;40.58;;
21727;SDS011;11026;50.560;17.852;2024-03-08T08:16:13;58.33;;;38.97;;
21727;SDS011;11026;50.560;17.852;2024-03-08T08:18:41;56.13;;;38.05;;
21727;SDS011;11026;50.560;17.852;2024-03-08T08:21:10;63.03;;;40.47;;
21727;SDS011;11026;50.560;17.852;2024-03-08T08:23:37;59.13;;;40.15;;
21727;SDS011;11026;50.560;17.852;2024-03-08T08:26:05;58.83;;;39.35;;
21727;SDS011;11026;50.560;17.852;2024-03-08T08:28:34;64.07;;;39.80;;
21727;SDS011;11026;50.560;17.852;2024-03-08T08:31:01;54.97;;;37.35;;
21727;SDS011;11026;50.560;17.852;2024-03-08T08:36:03;59.40;;;38.67;;
21727;SDS011;11026;50.560;17.852;2024-03-08T08:38:32;52.50;;;37.55;;
21727;SDS011;11026;50.560;17.852;2024-03-08T08:41:00;55.38;;;37.78;;
21727;SDS011;11026;50.560;17.852;2024-03-08T08:43:29;58.70;;;37.53;;
21727;SDS011;11026;50.560;17.852;2024-03-08T08:45:56;54.03;;;36.90;;
21727;SDS011;11026;50.560;17.852;2024-03-08T08:48:23;54.47;;;37.33;;
21727;SDS011;11026;50.560;17.852;2024-03-08T08:50:52;54.80;;;37.45;;
21727;SDS011;11026;50.560;17.852;2024-03-08T08:53:20;53.55;;;37.70;;
21727;SDS011;11026;50.560;17.852;2024-03-08T08:55:47;55.58;;;37.67;;
21727;SDS011;11026;50.560;17.852;2024-03-08T08:58:14;54.60;;;37.40;;
21727;SDS011;11026;50.560;17.852;2024-03-08T09:00:41;54.95;;;35.90;;
21727;SDS011;11026;50.560;17.852;2024-03-08T09:03:10;56.42;;;38.17;;
21727;SDS011;11026;50.560;17.852;2024-03-08T09:05:39;55.38;;;37.17;;
21727;SDS011;11026;50.560;17.852;2024-03-08T09:08:11;54.00;;;35.67;;
21727;SDS011;11026;50.560;17.852;2024-03-08T09:10:39;54.42;;;37.17;;
21727;SDS011;11026;50.560;17.852;2024-03-08T09:13:07;53.17;;;36.42;;
21727;SDS011;11026;50.560;17.852;2024-03-08T09:15:43;50.65;;;36.13;;
21727;SDS011;11026;50.560;17.852;2024-03-08T09:18:11;50.42;;;35.55;;
21727;SDS011;11026;50.560;17.852;2024-03-08T09:20:38;51.10;;;34.83;;
21727;SDS011;11026;50.560;17.852;2024-03-08T09:23:07;48.03;;;34.03;;
21727;SDS011;11026;50.560;17.852;2024-03-08T09:25:36;46.13;;;32.75;;
21727;SDS011;11026;50.560;17.852;2024-03-08T09:28:04;45.17;;;32.58;;
21727;SDS011;11026;50.560;17.852;2024-03-08T09:30:32;47.47;;;33.67;;
21727;SDS011;11026;50.560;17.852;2024-03-08T09:33:02;49.60;;;34.92;;
21727;SDS011;11026;50.560;17.852;2024-03-08T09:35:29;55.63;;;36.10;;
21727;SDS011;11026;50.560;17.852;2024-03-08T09:37:58;53.95;;;36.55;;
21727;SDS011;11026;50.560;17.852;2024-03-08T09:40:25;49.90;;;35.08;;
21727;SDS011;11026;50.560;17.852;2024-03-08T09:42:54;51.80;;;35.92;;
21727;SDS011;11026;50.560;17.852;2024-03-08T09:45:22;50.55;;;35.20;;
21727;SDS011;11026;50.560;17.852;2024-03-08T09:47:50;51.58;;;35.50;;
21727;SDS011;11026;50.560;17.852;2024-03-08T09:50:18;49.88;;;34.17;;
21727;SDS011;11026;50.560;17.852;2024-03-08T09:55:21;50.10;;;33.60;;
21727;SDS011;11026;50.560;17.852;2024-03-08T09:57:49;47.85;;;33.47;;
21727;SDS011;11026;50.560;17.852;2024-03-08T10:00:32;42.53;;;31.38;;
21727;SDS011;11026;50.560;17.852;2024-03-08T10:05:32;42.55;;;30.20;;
21727;SDS011;11026;50.560;17.852;2024-03-08T10:08:00;46.53;;;31.70;;
21727;SDS011;11026;50.560;17.852;2024-03-08T10:10:27;44.83;;;34.85;;
21727;SDS011;11026;50.560;17.852;2024-03-08T10:12:54;37.85;;;30.92;;
21727;SDS011;11026;50.560;17.852;2024-03-08T10:15:24;42.70;;;31.20;;
21727;SDS011;11026;50.560;17.852;2024-03-08T10:17:56;47.78;;;32.60;;
21727;SDS011;11026;50.560;17.852;2024-03-08T10:20:24;49.45;;;32.35;;
21727;SDS011;11026;50.560;17.852;2024-03-08T10:22:53;51.70;;;32.78;;
21727;SDS011;11026;50.560;17.852;2024-03-08T10:28:06;46.42;;;31.15;;
21727;SDS011;11026;50.560;17.852;2024-03-08T10:30:33;45.38;;;32.50;;
21727;SDS011;11026;50.560;17.852;2024-03-08T10:33:01;47.42;;;32.28;;
21727;SDS011;11026;50.560;17.852;2024-03-08T10:35:32;48.95;;;34.05;;
21727;SDS011;11026;50.560;17.852;2024-03-08T10:37:59;51.20;;;36.00;;
21727;SDS011;11026;50.560;17.852;2024-03-08T10:40:32;51.08;;;39.25;;
21727;SDS011;11026;50.560;17.852;2024-03-08T10:42:59;46.90;;;35.40;;
21727;SDS011;11026;50.560;17.852;2024-03-08T10:45:36;56.22;;;37.13;;
21727;SDS011;11026;50.560;17.852;2024-03-08T10:51:05;50.40;;;35.55;;
21727;SDS011;11026;50.560;17.852;2024-03-08T10:53:34;52.08;;;37.05;;
21727;SDS011;11026;50.560;17.852;2024-03-08T10:56:04;49.65;;;35.45;;
21727;SDS011;11026;50.560;17.852;2024-03-08T10:58:33;51.92;;;35.42;;
21727;SDS011;11026;50.560;17.852;2024-03-08T11:01:03;51.58;;;34.63;;
21727;SDS011;11026;50.560;17.852;2024-03-08T11:14:46;49.47;;;34.60;;
21727;SDS011;11026;50.560;17.852;2024-03-08T11:18:00;44.95;;;35.15;;
21727;SDS011;11026;50.560;17.852;2024-03-08T11:20:17;47.20;;;35.33;;
21727;SDS011;11026;50.560;17.852;2024-03-08T11:22:49;46.25;;;33.83;;
21727;SDS011;11026;50.560;17.852;2024-03-08T11:25:32;45.15;;;34.83;;
21727;SDS011;11026;50.560;17.852;2024-03-08T11:28:11;46.53;;;35.13;;
21727;SDS011;11026;50.560;17.852;2024-03-08T11:30:47;44.05;;;33.30;;
21727;SDS011;11026;50.560;17.852;2024-03-08T11:33:39;49.53;;;36.53;;
21727;SDS011;11026;50.560;17.852;2024-03-08T11:38:42;47.50;;;34.53;;
21727;SDS011;11026;50.560;17.852;2024-03-08T11:41:19;46.00;;;34.22;;
21727;SDS011;11026;50.560;17.852;2024-03-08T11:43:48;47.17;;;35.47;;
21727;SDS011;11026;50.560;17.852;2024-03-08T11:46:27;44.88;;;35.20;;
21727;SDS011;11026;50.560;17.852;2024-03-08T11:48:55;47.00;;;35.83;;
21727;SDS011;11026;50.560;17.852;2024-03-08T11:51:26;43.33;;;32.03;;
21727;SDS011;11026;50.560;17.852;2024-03-08T11:53:54;39.72;;;30.58;;
21727;SDS011;11026;50.560;17.852;2024-03-08T11:56:23;45.55;;;32.97;;
21727;SDS011;11026;50.560;17.852;2024-03-08T11:58:54;47.63;;;33.63;;
21727;SDS011;11026;50.560;17.852;2024-03-08T12:01:27;43.65;;;31.98;;
21727;SDS011;11026;50.560;17.852;2024-03-08T12:03:57;44.72;;;33.35;;
21727;SDS011;11026;50.560;17.852;2024-03-08T12:09:13;45.25;;;32.33;;
21727;SDS011;11026;50.560;17.852;2024-03-08T12:11:42;40.25;;;30.05;;
21727;SDS011;11026;50.560;17.852;2024-03-08T12:14:11;48.95;;;32.42;;
21727;SDS011;11026;50.560;17.852;2024-03-08T12:19:33;45.17;;;31.88;;
21727;SDS011;11026;50.560;17.852;2024-03-08T12:22:10;42.45;;;30.95;;
21727;SDS011;11026;50.560;17.852;2024-03-08T12:24:37;42.30;;;30.20;;
21727;SDS011;11026;50.560;17.852;2024-03-08T12:27:17;46.00;;;32.80;;
21727;SDS011;11026;50.560;17.852;2024-03-08T12:29:48;45.30;;;32.33;;
21727;SDS011;11026;50.560;17.852;2024-03-08T12:32:17;40.45;;;30.27;;
21727;SDS011;11026;50.560;17.852;2024-03-08T12:34:51;44.80;;;30.92;;
21727;SDS011;11026;50.560;17.852;2024-03-08T12:37:20;42.42;;;31.17;;
21727;SDS011;11026;50.560;17.852;2024-03-08T12:39:50;46.65;;;33.45;;
21727;SDS011;11026;50.560;17.852;2024-03-08T12:42:18;46.67;;;33.80;;
21727;SDS011;11026;50.560;17.852;2024-03-08T12:44:46;45.28;;;33.92;;
21727;SDS011;11026;50.560;17.852;2024-03-08T12:47:13;42.78;;;32.95;;
21727;SDS011;11026;50.560;17.852;2024-03-08T12:49:42;42.40;;;30.95;;
21727;SDS011;11026;50.560;17.852;2024-03-08T12:52:09;40.78;;;31.58;;
21727;SDS011;11026;50.560;17.852;2024-03-08T12:54:37;39.53;;;30.88;;
21727;SDS011;11026;50.560;17.852;2024-03-08T12:57:05;42.55;;;32.53;;
21727;SDS011;11026;50.560;17.852;2024-03-08T12:59:31;41.80;;;31.80;;
21727;SDS011;11026;50.560;17.852;2024-03-08T13:01:59;40.08;;;31.85;;
21727;SDS011;11026;50.560;17.852;2024-03-08T13:04:26;39.60;;;31.60;;
21727;SDS011;11026;50.560;17.852;2024-03-08T13:06:54;41.05;;;32.75;;
21727;SDS011;11026;50.560;17.852;2024-03-08T13:09:22;40.83;;;31.40;;
21727;SDS011;11026;50.560;17.852;2024-03-08T13:11:49;42.22;;;31.88;;
21727;SDS011;11026;50.560;17.852;2024-03-08T13:14:17;38.88;;;30.40;;
21727;SDS011;11026;50.560;17.852;2024-03-08T13:16:44;36.38;;;30.40;;
21727;SDS011;11026;50.560;17.852;2024-03-08T13:19:15;40.47;;;30.80;;
21727;SDS011;11026;50.560;17.852;2024-03-08T13:21:43;37.33;;;30.92;;
21727;SDS011;11026;50.560;17.852;2024-03-08T13:24:16;37.80;;;30.77;;
21727;SDS011;11026;50.560;17.852;2024-03-08T13:26:46;36.95;;;30.30;;
21727;SDS011;11026;50.560;17.852;2024-03-08T13:29:14;35.33;;;28.15;;
21727;SDS011;11026;50.560;17.852;2024-03-08T13:31:41;37.65;;;28.48;;
21727;SDS011;11026;50.560;17.852;2024-03-08T13:34:10;37.60;;;29.70;;
21727;SDS011;11026;50.560;17.852;2024-03-08T13:41:48;39.10;;;31.25;;
21727;SDS011;11026;50.560;17.852;2024-03-08T13:44:15;36.67;;;29.67;;
21727;SDS011;11026;50.560;17.852;2024-03-08T13:46:43;38.13;;;30.08;;
21727;SDS011;11026;50.560;17.852;2024-03-08T13:49:19;36.65;;;29.80;;
21727;SDS011;11026;50.560;17.852;2024-03-08T13:51:46;38.75;;;29.83;;
21727;SDS011;11026;50.560;17.852;2024-03-08T13:54:15;37.55;;;29.45;;
21727;SDS011;11026;50.560;17.852;2024-03-08T13:56:45;43.65;;;32.10;;
21727;SDS011;11026;50.560;17.852;2024-03-08T13:59:13;42.97;;;31.05;;
21727;SDS011;11026;50.560;17.852;2024-03-08T14:01:40;41.75;;;31.20;;
21727;SDS011;11026;50.560;17.852;2024-03-08T14:04:07;42.75;;;28.83;;
21727;SDS011;11026;50.560;17.852;2024-03-08T14:06:35;41.50;;;31.10;;
21727;SDS011;11026;50.560;17.852;2024-03-08T14:09:06;44.47;;;32.17;;
21727;SDS011;11026;50.560;17.852;2024-03-08T14:11:35;41.13;;;30.90;;
21727;SDS011;11026;50.560;17.852;2024-03-08T14:14:02;39.65;;;30.23;;
21727;SDS011;11026;50.560;17.852;2024-03-08T14:16:29;41.08;;;30.52;;
21727;SDS011;11026;50.560;17.852;2024-03-08T14:18:56;39.17;;;29.75;;
21727;SDS011;11026;50.560;17.852;2024-03-08T14:21:23;40.85;;;30.25;;
21727;SDS011;11026;50.560;17.852;2024-03-08T14:23:51;38.08;;;29.98;;
21727;SDS011;11026;50.560;17.852;2024-03-08T14:26:19;39.13;;;30.60;;
21727;SDS011;11026;50.560;17.852;2024-03-08T14:28:48;36.88;;;29.80;;
21727;SDS011;11026;50.560;17.852;2024-03-08T14:31:18;43.25;;;31.60;;
21727;SDS011;11026;50.560;17.852;2024-03-08T14:33:45;41.63;;;30.55;;
21727;SDS011;11026;50.560;17.852;2024-03-08T14:36:16;42.67;;;31.40;;
21727;SDS011;11026;50.560;17.852;2024-03-08T14:38:52;39.78;;;29.05;;
21727;SDS011;11026;50.560;17.852;2024-03-08T14:41:21;37.85;;;29.45;;
21727;SDS011;11026;50.560;17.852;2024-03-08T14:43:51;36.50;;;29.15;;
21727;SDS011;11026;50.560;17.852;2024-03-08T14:46:23;41.55;;;30.63;;
21727;SDS011;11026;50.560;17.852;2024-03-08T14:53:53;38.80;;;30.55;;
21727;SDS011;11026;50.560;17.852;2024-03-08T14:56:21;39.97;;;29.35;;
21727;SDS011;11026;50.560;17.852;2024-03-08T14:58:50;40.70;;;30.38;;
21727;SDS011;11026;50.560;17.852;2024-03-08T15:01:18;43.78;;;30.88;;
21727;SDS011;11026;50.560;17.852;2024-03-08T15:03:51;41.83;;;31.38;;
21727;SDS011;11026;50.560;17.852;2024-03-08T15:06:18;40.80;;;29.35;;
21727;SDS011;11026;50.560;17.852;2024-03-08T15:08:48;38.47;;;29.10;;
21727;SDS011;11026;50.560;17.852;2024-03-08T15:13:49;41.80;;;30.80;;
21727;SDS011;11026;50.560;17.852;2024-03-08T15:16:20;39.95;;;29.08;;
21727;SDS011;11026;50.560;17.852;2024-03-08T15:18:50;42.75;;;31.45;;
21727;SDS011;11026;50.560;17.852;2024-03-08T15:23:52;42.10;;;30.48;;
21727;SDS011;11026;50.560;17.852;2024-03-08T15:26:21;42.63;;;30.17;;
21727;SDS011;11026;50.560;17.852;2024-03-08T15:28:49;41.38;;;30.92;;
21727;SDS011;11026;50.560;17.852;2024-03-08T15:31:21;45.60;;;30.77;;
21727;SDS011;11026;50.560;17.852;2024-03-08T15:36:28;44.55;;;31.67;;
21727;SDS011;11026;50.560;17.852;2024-03-08T15:38:57;46.38;;;32.38;;
21727;SDS011;11026;50.560;17.852;2024-03-08T15:41:26;41.28;;;30.02;;
21727;SDS011;11026;50.560;17.852;2024-03-08T15:43:54;40.22;;;29.00;;